Decoded Metar for OERF (RAFHA in SAUDI ARABIA) (IATA:RAH) | Meteo·Mobile Aviation Weather
aviador You're here:

OERF Decoded Metar

RAFHA in SAUDI ARABIA
Report Time2019-04-18 10:00:00
UTC Time2019-04-18 11:13:13
Flight Rules Old
Wind150° at 09 kt
W.Decomp.*RWY 11: 7.1 kt HW 5.5 kt RCW
Visibility9999 m
Phenomena:N/A
Clouds:N/A
Expected CloudBase > 9,600 ft AGL from Temp-Dew spread
CeilingNone
Temp31°C (ISA +19)
Dew Point07°C (22% RH)
Heat Index29.2°C
AAT27.0°C
QNH1008 hPa
Density Alt3,930 ft
Elevation1,467 ft
Report Wrong Elevation
Raw Report
METAR OERF 181000Z 15009KT CAVOK 31/07 Q1008=

Extra information for OERF:More info

Metar Taf Metar & Taf Last 4 Metars F.Rules Stats Wind Profile Meteogram Temp Stats Airport Information Weather charts Add Link Nearby VenuesMetar ALERT Operation Metar Decoded Social comments